createdAt,value
2018-06-29T00:01:55.763Z,98343.27
2018-06-29T00:04:25.149Z,98352.44
2018-06-29T00:06:54.468Z,98346.91
2018-06-29T00:09:23.868Z,98352.38
2018-06-29T00:11:53.188Z,98354.46
2018-06-29T00:14:22.493Z,98353.47
2018-06-29T00:16:51.825Z,98345.78
2018-06-29T00:19:21.257Z,98347.66
2018-06-29T00:21:50.579Z,98345.02
2018-06-29T00:24:20.180Z,98346.31
2018-06-29T00:26:49.789Z,98347.95
2018-06-29T00:29:19.281Z,98349.19
2018-06-29T00:31:48.623Z,98344.05
2018-06-29T00:34:17.976Z,98344.93
2018-06-29T00:36:47.453Z,98346.89
2018-06-29T00:39:16.780Z,98345.63
2018-06-29T00:41:46.103Z,98346.35
2018-06-29T00:44:15.452Z,98344.02
2018-06-29T00:46:44.520Z,98341.75
2018-06-29T00:49:13.857Z,98344.09
2018-06-29T00:51:43.199Z,98341.11
2018-06-29T00:54:12.507Z,98339.88
2018-06-29T00:56:41.848Z,98338.47
2018-06-29T00:59:11.289Z,98340.19
2018-06-29T01:01:40.604Z,98343.78
2018-06-29T01:04:09.978Z,98340.91
2018-06-29T01:06:39.347Z,98339.27
2018-06-29T01:09:12.073Z,98339.84
2018-06-29T01:11:41.431Z,98345.62
2018-06-29T01:14:10.751Z,98345.84
2018-06-29T01:16:40.074Z,98338.45
2018-06-29T01:19:09.407Z,98339.47
2018-06-29T01:21:38.743Z,98337.59
2018-06-29T01:24:08.175Z,98336.95
2018-06-29T01:26:37.620Z,98341.59
2018-06-29T01:29:06.981Z,98342.66
2018-06-29T01:31:36.326Z,98342.89
2018-06-29T01:34:05.660Z,98340.00
2018-06-29T01:36:34.978Z,98337.41
2018-06-29T01:39:05.996Z,98342.88
2018-06-29T01:41:35.323Z,98334.02
2018-06-29T01:44:04.727Z,98342.81
2018-06-29T01:46:34.072Z,98335.44
2018-06-29T01:49:03.443Z,98328.09
2018-06-29T01:51:32.784Z,98323.74
2018-06-29T01:54:02.120Z,98319.84
2018-06-29T01:56:31.447Z,98325.84
2018-06-29T01:59:00.801Z,98316.95
2018-06-29T02:01:30.108Z,98317.23
2018-06-29T02:03:59.473Z,98311.29
2018-06-29T02:06:28.817Z,98318.91
2018-06-29T02:08:58.150Z,98325.20
2018-06-29T02:11:27.500Z,98316.11
2018-06-29T02:13:56.812Z,98318.19
2018-06-29T02:16:26.180Z,98320.09
2018-06-29T02:18:55.523Z,98321.09
2018-06-29T02:21:24.904Z,98322.41
2018-06-29T02:23:54.207Z,98324.77
2018-06-29T02:26:23.562Z,98323.70
2018-06-29T02:28:54.325Z,98331.50
2018-06-29T02:31:23.656Z,98328.83
2018-06-29T02:33:52.969Z,98328.52
2018-06-29T02:36:22.307Z,98326.97
2018-06-29T02:38:51.645Z,98324.34
2018-06-29T02:41:20.973Z,98321.00
2018-06-29T02:43:50.320Z,98318.44
2018-06-29T02:46:19.681Z,98320.37
2018-06-29T02:48:49.015Z,98318.72
2018-06-29T02:51:18.357Z,98316.61
2018-06-29T02:53:47.696Z,98319.66
2018-06-29T02:56:17.039Z,98307.51
2018-06-29T02:58:46.347Z,98309.78
2018-06-29T03:01:15.725Z,98309.36
2018-06-29T03:03:45.161Z,98310.55
2018-06-29T03:06:14.592Z,98310.55
2018-06-29T03:08:43.955Z,98316.55
2018-06-29T03:11:13.285Z,98315.67
2018-06-29T03:13:42.659Z,98314.23
2018-06-29T03:16:12.092Z,98309.05
2018-06-29T03:18:41.456Z,98305.72
2018-06-29T03:21:11.779Z,98309.09
2018-06-29T03:23:41.261Z,98311.09
2018-06-29T03:26:10.665Z,98312.28
2018-06-29T03:28:40.003Z,98309.06
2018-06-29T03:31:09.369Z,98299.58
2018-06-29T03:33:38.722Z,98299.67
2018-06-29T03:36:08.049Z,98295.50
2018-06-29T03:38:37.390Z,98295.44
2018-06-29T03:41:07.004Z,98128.40
2018-06-29T03:43:36.369Z,98293.92
2018-06-29T03:46:05.777Z,98292.06
2018-06-29T03:48:35.094Z,98291.16
2018-06-29T03:51:04.436Z,98293.80
2018-06-29T03:53:33.786Z,98293.78
2018-06-29T03:56:03.159Z,98290.47
2018-06-29T03:58:32.503Z,98283.28
2018-06-29T04:01:01.836Z,98285.27
2018-06-29T04:03:31.160Z,98279.95
2018-06-29T04:06:00.477Z,98275.75
2018-06-29T04:08:29.888Z,98269.71
2018-06-29T04:10:59.237Z,98273.45
2018-06-29T04:13:28.569Z,98280.50
2018-06-29T04:15:57.623Z,98273.61
2018-06-29T04:18:26.931Z,98272.95
2018-06-29T04:20:56.264Z,98271.05
2018-06-29T04:23:25.682Z,98269.21
2018-06-29T04:25:55.006Z,98269.71
2018-06-29T04:28:24.327Z,98269.52
2018-06-29T04:30:53.667Z,98277.58
2018-06-29T04:33:23.065Z,98280.14
2018-06-29T04:35:52.388Z,98278.77
2018-06-29T04:38:21.700Z,98281.88
2018-06-29T04:40:51.039Z,98286.67
2018-06-29T04:43:20.384Z,98286.25
2018-06-29T04:45:49.719Z,98280.48
2018-06-29T04:48:19.020Z,98285.69
2018-06-29T04:50:48.344Z,98285.31
2018-06-29T04:53:17.700Z,98286.39
2018-06-29T04:55:47.008Z,98291.94
2018-06-29T04:58:16.333Z,98290.33
2018-06-29T05:00:45.660Z,98291.75
2018-06-29T05:03:14.999Z,98293.92
2018-06-29T05:05:44.301Z,98285.73
2018-06-29T05:08:13.636Z,98288.91
2018-06-29T05:10:42.976Z,98285.63
2018-06-29T05:13:12.347Z,98274.91
2018-06-29T05:15:41.724Z,98283.71
2018-06-29T05:18:11.066Z,98278.05
2018-06-29T05:20:40.400Z,98275.41
2018-06-29T05:23:09.711Z,98278.53
2018-06-29T05:25:39.051Z,98271.41
2018-06-29T05:28:08.359Z,98275.88
2018-06-29T05:30:37.689Z,98274.88
2018-06-29T05:33:07.043Z,98276.02
2018-06-29T05:35:36.384Z,98272.02
2018-06-29T05:38:05.769Z,98269.41
2018-06-29T05:40:35.108Z,98279.88
2018-06-29T05:43:04.431Z,98281.78
2018-06-29T05:45:33.781Z,98278.80
2018-06-29T05:48:03.117Z,98279.92
2018-06-29T05:50:32.504Z,98280.30
2018-06-29T05:53:01.868Z,98286.73
2018-06-29T05:55:31.221Z,98285.34
2018-06-29T05:58:00.584Z,98284.23
2018-06-29T06:00:29.916Z,98287.09
2018-06-29T06:02:59.257Z,98278.47
2018-06-29T06:05:28.581Z,98279.84
2018-06-29T06:07:57.897Z,98274.68
2018-06-29T06:10:27.349Z,98268.96
2018-06-29T06:12:56.652Z,98267.95
2018-06-29T06:15:25.989Z,98267.47
2018-06-29T06:17:55.342Z,98260.45
2018-06-29T06:20:25.483Z,98264.94
2018-06-29T06:22:54.812Z,98256.52
2018-06-29T06:25:24.137Z,98260.48
2018-06-29T06:27:53.508Z,98263.43
2018-06-29T06:30:22.821Z,98263.72
2018-06-29T06:32:52.161Z,98264.37
2018-06-29T06:35:21.552Z,98268.66
2018-06-29T06:37:50.881Z,98269.54
2018-06-29T06:40:20.269Z,98272.95
2018-06-29T06:42:49.599Z,98277.23
2018-06-29T06:45:18.931Z,98279.41
2018-06-29T06:47:48.247Z,98279.20
2018-06-29T06:50:17.568Z,98287.02
2018-06-29T06:52:46.908Z,98281.20
2018-06-29T06:55:16.212Z,98278.86
2018-06-29T06:57:45.532Z,98279.57
2018-06-29T07:00:14.902Z,98276.42
2018-06-29T07:02:44.233Z,98280.39
2018-06-29T07:05:13.569Z,98273.73
2018-06-29T07:07:42.896Z,98279.41
2018-06-29T07:10:12.720Z,98284.85
2018-06-29T07:12:42.071Z,98284.23
2018-06-29T07:15:11.428Z,98279.49
2018-06-29T07:17:40.780Z,98285.78
2018-06-29T07:20:10.716Z,98281.47
2018-06-29T07:22:40.061Z,98284.84
2018-06-29T07:25:09.407Z,98281.60
2018-06-29T07:27:38.853Z,98277.80
2018-06-29T07:30:08.990Z,98273.03
2018-06-29T07:32:38.296Z,98276.64
2018-06-29T07:35:07.780Z,98275.61
2018-06-29T07:37:37.285Z,98268.86
2018-06-29T07:40:06.974Z,98264.53
2018-06-29T07:42:36.489Z,98269.64
2018-06-29T07:45:06.278Z,98260.98
2018-06-29T07:47:35.383Z,98260.14
2018-06-29T07:50:05.207Z,98264.81
2018-06-29T07:52:34.532Z,98264.44
2018-06-29T07:55:04.223Z,98263.30
2018-06-29T07:57:33.567Z,98258.77
2018-06-29T08:00:02.900Z,98268.02
2018-06-29T08:02:35.130Z,98261.45
2018-06-29T08:05:04.735Z,98261.88
2018-06-29T08:07:34.046Z,98269.93
2018-06-29T08:10:03.425Z,98268.55
2018-06-29T08:12:32.818Z,98259.57
2018-06-29T08:15:02.148Z,98257.05
2018-06-29T08:17:31.471Z,98260.13
2018-06-29T08:20:00.811Z,98251.73
2018-06-29T08:22:30.139Z,98250.61
2018-06-29T08:25:07.980Z,98241.61
2018-06-29T08:27:37.400Z,98244.81
2018-06-29T08:30:07.948Z,98247.61
2018-06-29T08:32:37.650Z,98237.38
2018-06-29T08:35:07.269Z,98234.17
2018-06-29T08:37:37.187Z,98237.09
2018-06-29T08:40:07.731Z,98227.36
2018-06-29T08:42:37.364Z,98234.57
2018-06-29T08:45:07.879Z,98235.11
2018-06-29T08:47:37.257Z,98230.64
2018-06-29T08:50:06.672Z,98237.69
2018-06-29T08:52:39.492Z,98232.13
2018-06-29T08:55:08.898Z,98240.69
2018-06-29T08:57:38.224Z,98233.86
2018-06-29T09:00:08.661Z,98226.43
2018-06-29T09:02:38.005Z,98224.42
2018-06-29T09:05:07.877Z,98224.39
2018-06-29T09:07:37.193Z,98225.70
2018-06-29T09:10:06.776Z,98222.86
2018-06-29T09:12:36.128Z,98225.95
2018-06-29T09:15:05.456Z,98216.96
2018-06-29T09:17:34.780Z,98221.46
2018-06-29T09:20:04.315Z,98219.34
2018-06-29T09:22:33.659Z,98228.92
2018-06-29T09:25:03.104Z,98230.63
2018-06-29T09:27:32.436Z,98230.55
2018-06-29T09:30:01.889Z,98218.85
2018-06-29T09:32:31.161Z,98212.61
2018-06-29T09:35:00.456Z,98211.77
2018-06-29T09:37:29.783Z,98207.29
2018-06-29T09:39:59.106Z,98211.88
2018-06-29T09:42:28.478Z,98210.48
2018-06-29T09:44:57.995Z,98207.72
2018-06-29T09:47:27.345Z,98210.45
2018-06-29T09:49:56.672Z,98210.94
2018-06-29T09:52:25.985Z,98210.98
2018-06-29T09:54:55.320Z,98207.47
2018-06-29T09:57:24.637Z,98204.82
2018-06-29T09:59:53.968Z,98199.69
2018-06-29T10:02:23.321Z,98200.97
2018-06-29T10:04:52.642Z,98197.45
2018-06-29T10:07:22.135Z,98202.72
2018-06-29T10:09:51.456Z,98200.14
2018-06-29T10:12:20.836Z,98196.61
2018-06-29T10:14:50.183Z,98198.55
2018-06-29T10:17:19.513Z,98186.66
2018-06-29T10:19:48.889Z,98189.97
2018-06-29T10:22:18.332Z,98192.41
2018-06-29T10:24:47.604Z,98174.80
2018-06-29T10:27:16.976Z,98176.80
2018-06-29T10:29:46.291Z,98179.08
2018-06-29T10:32:15.648Z,98177.38
2018-06-29T10:34:44.968Z,98181.51
2018-06-29T10:37:15.536Z,98180.63
2018-06-29T10:39:44.855Z,98181.86
2018-06-29T10:42:15.436Z,98184.66
2018-06-29T10:44:44.877Z,98179.89
2018-06-29T10:47:14.200Z,98179.36
2018-06-29T10:49:43.570Z,98180.94
2018-06-29T10:52:12.892Z,98172.06
2018-06-29T10:54:42.216Z,98175.73
2018-06-29T10:57:11.536Z,98166.42
2018-06-29T10:59:40.844Z,98172.56
2018-06-29T11:02:10.184Z,98165.36
2018-06-29T11:04:39.520Z,98169.42
2018-06-29T11:07:08.912Z,98163.81
2018-06-29T11:09:38.237Z,98164.06
2018-06-29T11:12:07.625Z,98152.03
2018-06-29T11:14:36.947Z,98149.53
2018-06-29T11:17:06.574Z,98152.14
2018-06-29T11:19:35.933Z,98158.77
2018-06-29T11:22:05.291Z,98158.17
2018-06-29T11:24:34.777Z,98097.48
2018-06-29T11:27:04.161Z,98146.25
2018-06-29T11:29:33.479Z,98145.48
2018-06-29T11:32:02.844Z,98147.64
2018-06-29T11:34:32.173Z,98139.70
2018-06-29T11:37:01.504Z,98145.23
2018-06-29T11:39:30.836Z,98147.28
2018-06-29T11:42:00.161Z,98144.09
2018-06-29T11:44:29.529Z,98131.59
2018-06-29T11:46:58.863Z,98131.42
2018-06-29T11:49:28.195Z,98120.11
2018-06-29T11:51:57.525Z,98124.81
2018-06-29T11:54:26.871Z,98120.00
2018-06-29T11:56:56.212Z,98120.93
2018-06-29T11:59:25.559Z,98120.05
2018-06-29T12:01:54.918Z,98117.26
2018-06-29T12:04:24.257Z,98115.46
2018-06-29T12:06:53.725Z,98112.98
2018-06-29T12:09:23.009Z,98104.84
2018-06-29T12:11:52.323Z,98108.90
2018-06-29T12:14:21.653Z,98101.97
2018-06-29T12:16:51.136Z,98100.91
2018-06-29T12:19:20.600Z,98104.20
2018-06-29T12:21:49.966Z,98097.41
2018-06-29T12:24:19.298Z,98098.56
2018-06-29T12:26:48.788Z,98097.13
2018-06-29T12:29:18.115Z,98098.69
2018-06-29T12:31:47.433Z,98088.91
2018-06-29T12:34:16.769Z,98088.00
2018-06-29T12:36:46.098Z,98084.36
2018-06-29T12:39:15.415Z,98082.93
2018-06-29T12:41:44.759Z,98073.96
2018-06-29T12:44:14.184Z,98078.77
2018-06-29T12:46:43.520Z,98076.12
2018-06-29T12:49:12.868Z,98073.88
2018-06-29T12:51:41.962Z,98076.80
2018-06-29T12:54:11.263Z,98069.09
2018-06-29T12:56:40.596Z,98073.83
2018-06-29T12:59:09.916Z,98065.38
2018-06-29T13:01:39.327Z,98063.34
2018-06-29T13:04:08.755Z,98058.34
2018-06-29T13:06:38.140Z,98046.55
2018-06-29T13:09:10.548Z,98056.52
2018-06-29T13:11:39.862Z,98058.30
2018-06-29T13:14:09.248Z,98051.26
2018-06-29T13:16:38.520Z,98055.86
2018-06-29T13:19:07.887Z,98063.30
2018-06-29T13:21:37.225Z,98049.97
2018-06-29T13:24:06.580Z,98056.09
2018-06-29T13:26:35.916Z,98049.01
2018-06-29T13:29:05.236Z,98052.01
2018-06-29T13:31:34.649Z,98044.61
2018-06-29T13:34:03.975Z,98036.66
2018-06-29T13:36:34.283Z,98035.13
2018-06-29T13:39:03.769Z,98039.81
2018-06-29T13:41:33.136Z,98029.28
2018-06-29T13:44:02.515Z,98029.02
2018-06-29T13:46:31.884Z,98023.91
2018-06-29T13:49:01.220Z,98023.14
2018-06-29T13:51:30.540Z,98018.66
2018-06-29T13:53:59.848Z,98022.23
2018-06-29T13:56:29.206Z,98014.28
2018-06-29T13:58:58.828Z,98007.83
2018-06-29T14:01:28.204Z,97999.84
2018-06-29T14:03:57.644Z,98007.65
2018-06-29T14:06:26.970Z,98006.01
2018-06-29T14:08:56.402Z,97998.70
2018-06-29T14:11:25.744Z,98002.53
2018-06-29T14:13:55.077Z,98000.27
2018-06-29T14:16:24.432Z,97991.13
2018-06-29T14:18:53.807Z,97988.86
2018-06-29T14:21:23.157Z,97987.48
2018-06-29T14:23:52.488Z,97997.83
2018-06-29T14:26:21.857Z,97991.55
2018-06-29T14:28:51.233Z,97990.32
2018-06-29T14:31:20.515Z,97984.30
2018-06-29T14:33:49.907Z,97988.91
2018-06-29T14:36:19.267Z,97989.58
2018-06-29T14:38:48.669Z,97989.47
2018-06-29T14:41:18.027Z,97977.67
2018-06-29T14:43:47.395Z,97984.27
2018-06-29T14:46:16.769Z,97977.75
2018-06-29T14:48:46.060Z,97983.42
2018-06-29T14:51:15.399Z,97973.03
2018-06-29T14:53:44.741Z,97972.59
2018-06-29T14:56:13.783Z,97969.91
2018-06-29T14:58:43.132Z,97982.41
2018-06-29T15:01:12.440Z,97969.78
2018-06-29T15:03:41.800Z,97970.38
2018-06-29T15:06:11.128Z,97970.91
2018-06-29T15:08:40.525Z,97964.20
2018-06-29T15:11:09.860Z,97969.39
2018-06-29T15:13:39.172Z,97966.75
2018-06-29T15:16:08.581Z,97963.39
2018-06-29T15:18:37.900Z,97957.06
2018-06-29T15:21:07.366Z,97953.02
2018-06-29T15:23:36.791Z,97953.94
2018-06-29T15:26:06.686Z,97952.23
2018-06-29T15:28:36.037Z,97947.92
2018-06-29T15:31:05.413Z,97947.34
2018-06-29T15:33:34.713Z,97947.71
2018-06-29T15:36:04.081Z,97952.31
2018-06-29T15:38:33.409Z,97942.75
2018-06-29T15:41:02.723Z,97941.94
2018-06-29T15:43:32.045Z,97934.94
2018-06-29T15:46:01.425Z,97943.44
2018-06-29T15:48:30.769Z,97941.35
2018-06-29T15:51:00.158Z,97940.02
2018-06-29T15:53:29.503Z,97944.98
2018-06-29T15:55:58.861Z,97940.01
2018-06-29T15:58:28.320Z,97938.17
2018-06-29T16:00:57.729Z,97930.39
2018-06-29T16:03:27.052Z,97929.89
2018-06-29T16:05:56.376Z,97931.61
2018-06-29T16:08:25.781Z,97935.47
2018-06-29T16:10:55.148Z,97935.77
2018-06-29T16:13:24.543Z,97932.83
2018-06-29T16:15:53.869Z,97931.12
2018-06-29T16:18:23.228Z,97927.08
2018-06-29T16:20:52.572Z,97932.89
2018-06-29T16:23:22.052Z,97930.99
2018-06-29T16:25:51.392Z,97923.89
2018-06-29T16:28:20.716Z,97915.33
2018-06-29T16:30:50.063Z,97919.29
2018-06-29T16:33:19.372Z,97920.84
2018-06-29T16:35:48.692Z,97920.79
2018-06-29T16:38:18.017Z,97921.08
2018-06-29T16:40:47.372Z,97922.60
2018-06-29T16:43:16.714Z,97916.91
2018-06-29T16:45:46.057Z,97926.06
2018-06-29T16:48:15.380Z,97922.86
2018-06-29T16:50:44.764Z,97922.18
2018-06-29T16:53:14.048Z,97921.92
2018-06-29T16:55:43.388Z,97923.21
2018-06-29T16:58:12.824Z,97925.47
2018-06-29T17:00:42.099Z,97916.63
2018-06-29T17:03:11.759Z,97918.88
2018-06-29T17:05:41.184Z,97916.12
2018-06-29T17:08:11.351Z,97910.86
2018-06-29T17:10:40.684Z,97918.91
2018-06-29T17:13:10.020Z,97913.82
2018-06-29T17:15:39.415Z,97914.17
2018-06-29T17:18:08.750Z,97915.34
2018-06-29T17:20:38.085Z,97921.45
2018-06-29T17:23:08.232Z,97919.52
2018-06-29T17:25:37.580Z,97922.68
2018-06-29T17:28:07.128Z,97918.73
2018-06-29T17:30:36.511Z,97913.37
2018-06-29T17:33:06.332Z,97915.95
2018-06-29T17:35:35.669Z,97915.47
2018-06-29T17:38:05.012Z,97913.06
2018-06-29T17:40:34.369Z,97918.14
2018-06-29T17:43:03.757Z,97914.07
2018-06-29T17:45:33.137Z,97911.61
2018-06-29T17:48:02.469Z,97908.47
2018-06-29T17:50:31.807Z,97904.07
2018-06-29T17:53:01.140Z,97905.31
2018-06-29T17:55:30.475Z,97914.31
2018-06-29T17:57:59.804Z,97913.59
2018-06-29T18:00:29.120Z,97913.62
2018-06-29T18:02:58.511Z,97910.33
2018-06-29T18:05:27.858Z,97909.23
2018-06-29T18:07:57.136Z,97915.62
2018-06-29T18:10:26.964Z,97915.34
2018-06-29T18:12:56.439Z,97919.41
2018-06-29T18:15:25.676Z,97926.17
2018-06-29T18:17:55.040Z,97918.38
2018-06-29T18:20:24.526Z,97923.11
2018-06-29T18:22:53.896Z,97924.02
2018-06-29T18:25:23.254Z,97927.75
2018-06-29T18:27:52.863Z,97920.08
2018-06-29T18:30:22.275Z,97924.07
2018-06-29T18:32:51.815Z,97926.59
2018-06-29T18:35:21.164Z,97926.69
2018-06-29T18:37:50.512Z,97924.78
2018-06-29T18:40:19.860Z,97929.69
2018-06-29T18:42:49.213Z,97925.64
2018-06-29T18:45:18.520Z,97931.27
2018-06-29T18:47:47.921Z,97932.98
2018-06-29T18:50:17.257Z,97926.24
2018-06-29T18:52:46.576Z,97932.33
2018-06-29T18:55:15.912Z,97936.76
2018-06-29T18:57:45.266Z,97940.67
2018-06-29T19:00:14.589Z,97935.73
2018-06-29T19:02:44.233Z,97937.99
2018-06-29T19:05:13.568Z,97939.76
2018-06-29T19:07:42.913Z,97947.88
2018-06-29T19:10:12.257Z,97950.44
2018-06-29T19:12:41.598Z,97950.87
2018-06-29T19:15:10.955Z,97888.32
2018-06-29T19:17:40.561Z,97955.28
2018-06-29T19:20:09.941Z,97960.91
2018-06-29T19:22:39.270Z,97956.63
2018-06-29T19:25:08.594Z,97959.12
2018-06-29T19:27:37.896Z,97959.61
2018-06-29T19:30:07.270Z,97968.45
2018-06-29T19:32:36.601Z,97962.74
2018-06-29T19:35:05.964Z,97968.24
2018-06-29T19:37:35.337Z,97973.33
2018-06-29T19:40:04.841Z,97967.78
2018-06-29T19:42:34.240Z,97967.30
2018-06-29T19:45:03.673Z,97969.89
2018-06-29T19:47:33.013Z,97973.42
2018-06-29T19:50:02.346Z,97969.80
2018-06-29T19:52:31.656Z,97973.78
2018-06-29T19:55:01.041Z,97969.81
2018-06-29T19:57:30.378Z,97974.72
2018-06-29T19:59:59.766Z,97976.53
2018-06-29T20:02:29.120Z,97979.72
2018-06-29T20:04:59.411Z,97987.22
2018-06-29T20:07:28.773Z,97981.59
2018-06-29T20:09:58.105Z,97984.20
2018-06-29T20:12:27.448Z,97989.94
2018-06-29T20:14:56.777Z,97985.72
2018-06-29T20:17:26.128Z,97988.13
2018-06-29T20:19:55.449Z,97984.41
2018-06-29T20:22:24.798Z,97986.30
2018-06-29T20:24:54.119Z,97991.26
2018-06-29T20:27:23.473Z,97994.70
2018-06-29T20:29:52.817Z,98001.42
2018-06-29T20:32:22.176Z,97998.53
2018-06-29T20:34:51.527Z,97999.05
2018-06-29T20:37:20.852Z,98003.22
2018-06-29T20:39:50.296Z,98004.36
2018-06-29T20:42:19.626Z,98000.80
2018-06-29T20:44:48.940Z,98005.08
2018-06-29T20:47:18.261Z,98009.06
2018-06-29T20:49:47.584Z,98008.38
2018-06-29T20:52:16.920Z,98013.09
2018-06-29T20:54:46.269Z,98004.52
2018-06-29T20:57:15.683Z,98006.30
2018-06-29T20:59:45.009Z,98008.77
2018-06-29T21:02:14.337Z,98007.47
2018-06-29T21:04:43.692Z,98004.85
2018-06-29T21:07:13.010Z,98011.84
2018-06-29T21:09:42.356Z,98009.95
2018-06-29T21:12:11.684Z,98011.00
2018-06-29T21:14:41.878Z,98016.93
2018-06-29T21:17:11.227Z,98000.25
2018-06-29T21:19:40.982Z,98012.48
2018-06-29T21:22:10.663Z,98007.20
2018-06-29T21:24:40.362Z,98002.81
2018-06-29T21:27:09.920Z,98006.58
2018-06-29T21:29:39.688Z,98000.90
2018-06-29T21:32:10.013Z,98004.95
2018-06-29T21:34:39.649Z,98006.22
2018-06-29T21:37:09.365Z,98009.55
2018-06-29T21:39:38.986Z,98006.63
2018-06-29T21:42:08.911Z,98010.80
2018-06-29T21:44:38.570Z,98003.47
2018-06-29T21:47:08.269Z,98001.53
2018-06-29T21:49:37.588Z,97999.01
2018-06-29T21:52:07.024Z,97997.84
2018-06-29T21:54:36.364Z,97999.98
2018-06-29T21:57:05.871Z,98003.02
2018-06-29T21:59:35.255Z,97996.02
2018-06-29T22:02:04.631Z,98006.25
2018-06-29T22:04:33.969Z,98000.70
2018-06-29T22:07:03.288Z,98008.33
2018-06-29T22:09:32.596Z,98011.55
2018-06-29T22:12:02.029Z,98008.95
2018-06-29T22:14:31.344Z,98004.99
2018-06-29T22:17:00.676Z,98012.80
2018-06-29T22:19:30.014Z,98009.03
2018-06-29T22:21:59.384Z,98008.73
2018-06-29T22:24:28.725Z,98009.95
2018-06-29T22:26:58.067Z,98009.88
2018-06-29T22:29:27.451Z,98006.35
2018-06-29T22:31:56.830Z,98011.77
2018-06-29T22:34:26.168Z,98012.11
2018-06-29T22:36:55.689Z,98009.72
2018-06-29T22:39:25.139Z,98009.41
2018-06-29T22:41:54.447Z,98006.67
2018-06-29T22:44:23.844Z,98008.05
2018-06-29T22:46:53.141Z,98007.39
2018-06-29T22:49:22.468Z,98008.89
2018-06-29T22:51:51.800Z,98010.41
2018-06-29T22:54:21.148Z,98014.82
2018-06-29T22:56:50.504Z,98012.55
2018-06-29T22:59:19.838Z,98011.72
2018-06-29T23:01:49.221Z,98008.43
2018-06-29T23:04:18.553Z,98008.77
2018-06-29T23:06:48.052Z,98012.54
2018-06-29T23:09:17.398Z,98011.88
2018-06-29T23:11:46.732Z,98010.42
2018-06-29T23:14:16.065Z,98019.10
2018-06-29T23:16:45.468Z,98014.49
2018-06-29T23:19:14.775Z,98009.67
2018-06-29T23:21:44.145Z,98011.76
2018-06-29T23:24:13.453Z,98009.95
2018-06-29T23:26:42.783Z,98010.84
2018-06-29T23:29:12.132Z,98014.28
2018-06-29T23:31:41.519Z,98006.98
2018-06-29T23:34:10.862Z,98008.80
2018-06-29T23:36:40.184Z,98009.72
2018-06-29T23:39:11.451Z,98005.69
2018-06-29T23:41:40.800Z,98003.01
2018-06-29T23:44:11.363Z,98000.61
2018-06-29T23:46:40.701Z,97999.90
2018-06-29T23:49:10.040Z,97990.80
2018-06-29T23:51:39.376Z,98002.54
2018-06-29T23:54:08.808Z,98007.41
2018-06-29T23:56:38.180Z,98005.14
2018-06-29T23:59:07.572Z,98005.14
